Time;durP1;ratioP1;P1;durP2;ratioP2;P2;SDS_P1;SDS_P2;PMS_P1;PMS_P2;Temp;Humidity;BMP_temperature;BMP_pressure;BME280_temperature;BME280_humidity;BME280_pressure;Samples;Min_cycle;Max_cycle;Signal;HPM_P1;HPM_P2
2023/05/04 00:01:04;;;;;;;2.15;1.73;;;;;;;;;;5044150;28;20519;-67
2023/05/04 00:03:30;;;;;;;1.95;1.27;;;;;;;;;;5043222;28;20033;-67
2023/05/04 00:05:56;;;;;;;2.80;1.65;;;;;;;;;;5044197;28;20052;-67
2023/05/04 00:08:22;;;;;;;1.60;1.50;;;;;;;;;;5044231;28;20032;-67
2023/05/04 00:10:48;;;;;;;1.88;1.13;;;;;;;;;;5045749;28;20077;-67
2023/05/04 00:13:14;;;;;;;0.82;0.82;;;;;;;;;;5044539;28;20047;-67
2023/05/04 00:15:40;;;;;;;1.38;1.08;;;;;;;;;;5044156;28;20040;-67
2023/05/04 00:18:07;;;;;;;1.85;1.40;;;;;;;;;;5027294;28;20079;-67
2023/05/04 00:20:33;;;;;;;1.25;1.15;;;;;;;;;;5025561;28;20140;-67
2023/05/04 00:22:59;;;;;;;1.48;1.10;;;;;;;;;;5042396;28;20052;-67
2023/05/04 00:25:25;;;;;;;0.88;0.70;;;;;;;;;;5043726;28;20072;-67
2023/05/04 00:27:51;;;;;;;1.42;1.10;;;;;;;;;;5045171;28;20128;-67
2023/05/04 00:30:17;;;;;;;1.42;1.00;;;;;;;;;;5042904;28;20234;-67
2023/05/04 00:32:43;;;;;;;1.27;0.88;;;;;;;;;;5044215;28;20049;-67
2023/05/04 00:35:09;;;;;;;1.67;0.93;;;;;;;;;;5043415;28;20049;-67
2023/05/04 00:37:35;;;;;;;1.50;0.95;;;;;;;;;;5042109;28;20045;-67
2023/05/04 00:40:01;;;;;;;4.05;1.40;;;;;;;;;;5043429;28;20060;-66
2023/05/04 00:42:27;;;;;;;1.27;1.08;;;;;;;;;;5027410;28;20108;-67
2023/05/04 00:44:53;;;;;;;0.98;0.98;;;;;;;;;;5042439;28;20057;-67
2023/05/04 00:47:20;;;;;;;0.98;0.68;;;;;;;;;;5025232;28;20158;-67
2023/05/04 00:49:46;;;;;;;0.85;0.85;;;;;;;;;;5025049;28;20057;-67
2023/05/04 00:52:13;;;;;;;0.77;0.70;;;;;;;;;;5043265;28;20056;-67
2023/05/04 00:54:39;;;;;;;1.95;1.30;;;;;;;;;;5025487;28;20045;-67
2023/05/04 00:57:05;;;;;;;1.52;1.05;;;;;;;;;;5043225;28;20730;-67
2023/05/04 00:59:31;;;;;;;1.50;1.40;;;;;;;;;;5042364;28;20559;-66
2023/05/04 01:01:57;;;;;;;1.45;1.17;;;;;;;;;;5025139;28;20119;-67
2023/05/04 01:04:23;;;;;;;1.20;0.75;;;;;;;;;;5043301;28;20080;-67
2023/05/04 01:06:59;;;;;;;0.73;0.73;;;;;;;;;;5042102;28;20052;-67
2023/05/04 01:09:38;;;;;;;1.73;0.98;;;;;;;;;;5026641;28;20491;-67
2023/05/04 01:12:06;;;;;;;1.85;0.82;;;;;;;;;;5044815;28;20044;-67
2023/05/04 01:14:33;;;;;;;1.77;1.27;;;;;;;;;;5046782;28;20045;-67
2023/05/04 01:16:59;;;;;;;1.67;0.60;;;;;;;;;;5048922;28;20052;-67
2023/05/04 01:19:28;;;;;;;1.90;0.93;;;;;;;;;;5046452;28;20135;-67
2023/05/04 01:21:55;;;;;;;0.68;0.60;;;;;;;;;;5029108;28;20420;-67
2023/05/04 01:24:21;;;;;;;1.20;1.10;;;;;;;;;;5028760;28;20041;-67
2023/05/04 01:26:50;;;;;;;2.38;1.02;;;;;;;;;;5028364;28;20071;-67
2023/05/04 01:29:20;;;;;;;1.60;1.35;;;;;;;;;;5047059;28;20037;-66
2023/05/04 01:31:46;;;;;;;1.02;1.02;;;;;;;;;;5028484;28;20135;-67
2023/05/04 01:34:13;;;;;;;1.52;1.27;;;;;;;;;;5046614;28;20489;-67
2023/05/04 01:36:40;;;;;;;1.52;1.10;;;;;;;;;;5046739;28;20045;-66
2023/05/04 01:39:07;;;;;;;1.17;1.00;;;;;;;;;;5026503;28;20467;-67
2023/05/04 01:41:33;;;;;;;1.05;0.90;;;;;;;;;;5027982;28;20186;-66
2023/05/04 01:43:59;;;;;;;1.35;1.10;;;;;;;;;;5046811;28;20060;-67
2023/05/04 01:46:25;;;;;;;0.88;0.85;;;;;;;;;;5028364;28;20541;-67
2023/05/04 01:48:51;;;;;;;1.25;1.15;;;;;;;;;;5027817;28;20041;-67
2023/05/04 01:51:17;;;;;;;2.17;1.23;;;;;;;;;;5030799;28;20053;-67
2023/05/04 01:53:43;;;;;;;1.25;1.00;;;;;;;;;;5029482;28;20139;-67
2023/05/04 01:56:10;;;;;;;1.75;1.13;;;;;;;;;;5045682;28;20139;-67
2023/05/04 01:58:36;;;;;;;2.40;1.75;;;;;;;;;;5028414;28;20060;-66
2023/05/04 02:01:02;;;;;;;2.65;1.52;;;;;;;;;;5046479;28;20048;-67
2023/05/04 02:03:28;;;;;;;2.00;1.85;;;;;;;;;;5045924;28;20045;-67
2023/05/04 02:05:54;;;;;;;2.78;1.90;;;;;;;;;;5028483;28;20051;-66
2023/05/04 02:08:20;;;;;;;2.10;1.60;;;;;;;;;;5030163;28;20052;-66
2023/05/04 02:10:47;;;;;;;1.70;1.23;;;;;;;;;;5045188;28;20137;-67
2023/05/04 02:13:13;;;;;;;1.77;1.10;;;;;;;;;;5047489;28;20040;-66
2023/05/04 02:15:39;;;;;;;0.70;0.70;;;;;;;;;;5027963;28;20471;-66
2023/05/04 02:18:05;;;;;;;2.00;1.13;;;;;;;;;;5028347;28;20840;-67
2023/05/04 02:20:31;;;;;;;1.45;1.20;;;;;;;;;;5029774;28;20732;-66
2023/05/04 02:22:57;;;;;;;1.20;1.08;;;;;;;;;;5044823;28;20136;-66
2023/05/04 02:25:23;;;;;;;1.77;1.25;;;;;;;;;;5046189;28;20048;-66
2023/05/04 02:27:49;;;;;;;1.17;1.08;;;;;;;;;;5028900;28;20136;-66
2023/05/04 02:30:15;;;;;;;0.82;0.82;;;;;;;;;;5045891;28;20119;-66
2023/05/04 02:32:41;;;;;;;0.80;0.80;;;;;;;;;;5047113;28;20558;-67
2023/05/04 02:35:07;;;;;;;1.65;1.27;;;;;;;;;;5047719;28;20446;-66
2023/05/04 02:37:33;;;;;;;2.65;1.05;;;;;;;;;;5027140;28;20601;-66
2023/05/04 02:39:59;;;;;;;1.63;1.20;;;;;;;;;;5027670;28;20122;-66
2023/05/04 02:42:25;;;;;;;2.17;1.88;;;;;;;;;;5045575;28;20048;-66
2023/05/04 02:44:51;;;;;;;1.33;1.23;;;;;;;;;;5025513;28;20041;-67
2023/05/04 02:47:17;;;;;;;2.85;1.70;;;;;;;;;;5045400;28;20148;-66
2023/05/04 02:49:43;;;;;;;1.17;1.15;;;;;;;;;;5028233;28;20128;-66
2023/05/04 02:52:09;;;;;;;0.90;0.90;;;;;;;;;;5044769;28;20685;-66
2023/05/04 02:54:37;;;;;;;1.08;1.00;;;;;;;;;;5027750;28;20154;-67
2023/05/04 02:57:03;;;;;;;1.48;1.00;;;;;;;;;;5045480;28;20120;-66
2023/05/04 02:59:29;;;;;;;1.48;1.30;;;;;;;;;;5046517;28;20041;-67
2023/05/04 03:01:55;;;;;;;1.40;1.30;;;;;;;;;;5045118;28;20466;-66
2023/05/04 03:04:21;;;;;;;1.55;1.45;;;;;;;;;;5045400;28;20041;-67
2023/05/04 03:06:47;;;;;;;2.05;1.65;;;;;;;;;;5044329;28;20051;-67
2023/05/04 03:09:13;;;;;;;1.85;1.23;;;;;;;;;;5028091;28;20052;-67
2023/05/04 03:11:39;;;;;;;1.60;1.50;;;;;;;;;;5045515;28;20441;-66
2023/05/04 03:14:05;;;;;;;1.80;1.35;;;;;;;;;;5044954;28;20049;-66
2023/05/04 03:16:31;;;;;;;1.85;1.25;;;;;;;;;;5027391;28;20037;-66
2023/05/04 03:18:57;;;;;;;1.30;1.20;;;;;;;;;;5026275;28;20091;-66
2023/05/04 03:21:24;;;;;;;1.30;1.20;;;;;;;;;;5026894;28;20045;-66
2023/05/04 03:23:50;;;;;;;1.65;1.50;;;;;;;;;;5044745;28;20059;-67
2023/05/04 03:26:16;;;;;;;1.17;1.08;;;;;;;;;;5044389;28;20119;-67
2023/05/04 03:28:42;;;;;;;1.15;1.05;;;;;;;;;;5027418;28;20041;-66
2023/05/04 03:31:08;;;;;;;2.05;1.17;;;;;;;;;;5044948;28;20055;-66
2023/05/04 03:33:34;;;;;;;1.23;1.13;;;;;;;;;;5024734;28;20570;-66
2023/05/04 03:36:00;;;;;;;1.52;1.30;;;;;;;;;;5044373;28;20040;-66
2023/05/04 03:38:26;;;;;;;1.23;1.13;;;;;;;;;;5026755;28;20612;-66
2023/05/04 03:40:52;;;;;;;1.67;1.23;;;;;;;;;;5026102;28;20043;-66
2023/05/04 03:43:18;;;;;;;1.48;1.10;;;;;;;;;;5045059;28;20036;-66
2023/05/04 03:45:44;;;;;;;1.20;1.10;;;;;;;;;;5045005;28;20044;-66
2023/05/04 03:48:10;;;;;;;2.88;1.38;;;;;;;;;;5026362;28;20057;-66
2023/05/04 03:50:36;;;;;;;0.85;0.73;;;;;;;;;;5044324;28;20045;-66
2023/05/04 03:53:02;;;;;;;0.85;0.82;;;;;;;;;;5043409;28;20045;-66
2023/05/04 03:55:28;;;;;;;1.67;1.50;;;;;;;;;;5031021;28;20128;-66
2023/05/04 03:57:54;;;;;;;1.20;1.10;;;;;;;;;;5025133;28;20751;-67
2023/05/04 04:00:20;;;;;;;1.33;1.10;;;;;;;;;;5044336;28;20041;-66
2023/05/04 04:02:46;;;;;;;1.10;0.98;;;;;;;;;;5025451;28;20471;-67
2023/05/04 04:05:12;;;;;;;2.15;1.65;;;;;;;;;;5023386;28;20044;-66
2023/05/04 04:07:38;;;;;;;1.58;0.90;;;;;;;;;;5025842;28;20045;-66
2023/05/04 04:10:04;;;;;;;0.82;0.82;;;;;;;;;;5042733;28;20056;-67
2023/05/04 04:12:30;;;;;;;1.17;1.08;;;;;;;;;;5044181;28;20041;-66
2023/05/04 04:14:56;;;;;;;1.80;1.10;;;;;;;;;;5043352;28;21692;-67
2023/05/04 04:17:22;;;;;;;1.02;0.93;;;;;;;;;;5025451;28;20079;-67
2023/05/04 04:19:48;;;;;;;1.75;1.30;;;;;;;;;;5043545;28;20125;-66
2023/05/04 04:22:14;;;;;;;2.22;2.00;;;;;;;;;;5043493;28;20649;-66
2023/05/04 04:24:40;;;;;;;2.40;1.90;;;;;;;;;;5044351;28;20044;-67
2023/05/04 04:27:06;;;;;;;2.15;1.45;;;;;;;;;;5025636;28;20560;-66
2023/05/04 04:29:34;;;;;;;2.45;1.65;;;;;;;;;;5043157;28;20043;-67
2023/05/04 04:32:00;;;;;;;1.42;1.20;;;;;;;;;;5043362;28;20049;-66
2023/05/04 04:34:26;;;;;;;2.50;1.27;;;;;;;;;;5043616;28;20037;-66
2023/05/04 04:36:52;;;;;;;2.42;1.60;;;;;;;;;;5045021;28;20552;-66
2023/05/04 04:39:18;;;;;;;1.65;1.38;;;;;;;;;;5025589;28;20060;-67
2023/05/04 04:41:44;;;;;;;1.63;1.48;;;;;;;;;;5044146;28;20758;-66
2023/05/04 04:44:10;;;;;;;1.50;1.40;;;;;;;;;;5043269;28;20041;-67
2023/05/04 04:46:36;;;;;;;1.25;1.15;;;;;;;;;;5021111;28;20060;-66
2023/05/04 04:49:02;;;;;;;0.88;0.88;;;;;;;;;;5019435;28;20160;-67
2023/05/04 04:51:28;;;;;;;1.00;0.95;;;;;;;;;;5019002;28;20129;-66
2023/05/04 04:53:54;;;;;;;1.23;0.90;;;;;;;;;;5021955;28;20092;-67
2023/05/04 04:56:20;;;;;;;3.28;1.60;;;;;;;;;;5023569;28;20073;-66
2023/05/04 04:58:47;;;;;;;2.65;1.40;;;;;;;;;;5021928;28;20045;-67
2023/05/04 05:01:16;;;;;;;1.85;1.70;;;;;;;;;;5022576;28;20053;-67
2023/05/04 05:03:43;;;;;;;1.17;1.08;;;;;;;;;;5023731;28;20046;-66
2023/05/04 05:06:10;;;;;;;1.98;1.33;;;;;;;;;;5021212;28;20048;-66
2023/05/04 05:08:36;;;;;;;2.67;1.60;;;;;;;;;;5023204;28;20045;-67
2023/05/04 05:11:02;;;;;;;2.65;1.65;;;;;;;;;;5022210;28;20045;-66
2023/05/04 05:13:29;;;;;;;1.67;1.42;;;;;;;;;;5021348;28;20052;-66
2023/05/04 05:15:55;;;;;;;1.95;1.60;;;;;;;;;;5021697;28;20064;-67
2023/05/04 05:18:22;;;;;;;1.52;1.38;;;;;;;;;;5022654;28;20045;-67
2023/05/04 05:20:48;;;;;;;1.70;1.42;;;;;;;;;;5023168;28;20048;-67
2023/05/04 05:23:14;;;;;;;2.42;2.05;;;;;;;;;;5023077;28;20044;-67
2023/05/04 05:25:40;;;;;;;1.98;1.88;;;;;;;;;;5021022;28;20119;-66
2023/05/04 05:28:06;;;;;;;2.03;1.70;;;;;;;;;;5021169;28;20055;-66
2023/05/04 05:30:32;;;;;;;1.98;1.42;;;;;;;;;;5021407;28;20037;-66
2023/05/04 05:32:58;;;;;;;2.08;1.60;;;;;;;;;;5022243;28;20049;-66
2023/05/04 05:35:24;;;;;;;2.53;1.77;;;;;;;;;;5021034;28;20036;-67
2023/05/04 05:37:50;;;;;;;1.65;1.30;;;;;;;;;;5020978;28;20742;-67
2023/05/04 05:40:17;;;;;;;2.58;2.10;;;;;;;;;;5021269;28;20472;-66
2023/05/04 05:42:44;;;;;;;4.20;2.00;;;;;;;;;;5022706;28;20049;-66
2023/05/04 05:45:10;;;;;;;1.42;1.33;;;;;;;;;;5021787;28;20499;-66
2023/05/04 05:47:36;;;;;;;2.53;1.98;;;;;;;;;;5039456;28;20049;-66
2023/05/04 05:50:03;;;;;;;1.85;1.60;;;;;;;;;;5039434;28;20037;-67
2023/05/04 05:52:29;;;;;;;2.95;1.88;;;;;;;;;;5042616;28;20056;-66
2023/05/04 05:54:55;;;;;;;1.50;1.35;;;;;;;;;;5041983;28;20045;-68
2023/05/04 05:57:21;;;;;;;2.40;1.52;;;;;;;;;;5028053;28;20140;-67
2023/05/04 05:59:47;;;;;;;1.65;1.42;;;;;;;;;;5029142;28;20078;-67
2023/05/04 06:02:14;;;;;;;3.03;2.30;;;;;;;;;;5028610;28;20049;-67
2023/05/04 06:04:40;;;;;;;3.70;2.80;;;;;;;;;;5028018;28;20073;-67
2023/05/04 06:07:06;;;;;;;2.40;2.00;;;;;;;;;;5044971;28;20044;-67
2023/05/04 06:09:32;;;;;;;2.00;1.60;;;;;;;;;;5045456;28;20185;-67
2023/05/04 06:11:59;;;;;;;2.65;1.60;;;;;;;;;;5046128;28;20048;-67
2023/05/04 06:14:25;;;;;;;2.45;1.40;;;;;;;;;;5045850;28;20596;-67
2023/05/04 06:16:51;;;;;;;2.20;2.00;;;;;;;;;;5027353;28;20045;-67
2023/05/04 06:19:17;;;;;;;4.07;2.58;;;;;;;;;;5028101;28;20079;-67
2023/05/04 06:21:43;;;;;;;3.65;2.63;;;;;;;;;;5045442;28;20052;-67
2023/05/04 06:24:09;;;;;;;3.70;2.80;;;;;;;;;;5028163;28;20057;-67
2023/05/04 06:26:35;;;;;;;4.65;3.13;;;;;;;;;;5027947;28;20463;-67
2023/05/04 06:29:01;;;;;;;7.30;3.90;;;;;;;;;;5044748;28;20506;-67
2023/05/04 06:31:27;;;;;;;6.40;3.88;;;;;;;;;;5045872;28;20493;-67
2023/05/04 06:33:53;;;;;;;6.18;3.72;;;;;;;;;;5045605;28;20216;-67
2023/05/04 06:36:19;;;;;;;5.40;4.05;;;;;;;;;;5045217;28;20453;-67
2023/05/04 06:38:45;;;;;;;6.32;4.00;;;;;;;;;;5027614;28;20052;-67
2023/05/04 06:41:11;;;;;;;5.20;3.20;;;;;;;;;;5046494;28;20037;-67
2023/05/04 06:43:40;;;;;;;5.40;3.90;;;;;;;;;;5026865;28;20067;-67
2023/05/04 06:46:07;;;;;;;7.60;3.90;;;;;;;;;;5020161;28;20073;-67
2023/05/04 06:48:33;;;;;;;5.05;3.00;;;;;;;;;;5027567;28;20168;-67
2023/05/04 06:50:59;;;;;;;4.35;3.33;;;;;;;;;;5023586;28;20110;-67
2023/05/04 06:53:25;;;;;;;7.68;3.58;;;;;;;;;;5025789;28;20053;-67
2023/05/04 06:55:51;;;;;;;6.63;4.53;;;;;;;;;;5024223;28;20533;-67
2023/05/04 06:58:20;;;;;;;4.00;3.35;;;;;;;;;;5025415;28;20044;-67
2023/05/04 07:00:47;;;;;;;7.35;3.83;;;;;;;;;;5023585;28;20103;-68
2023/05/04 07:03:13;;;;;;;6.88;4.28;;;;;;;;;;5026745;28;20038;-67
2023/05/04 07:05:39;;;;;;;6.57;3.55;;;;;;;;;;5023761;28;20080;-67
2023/05/04 07:08:05;;;;;;;5.75;4.30;;;;;;;;;;5020216;28;20143;-67
2023/05/04 07:10:31;;;;;;;5.70;4.68;;;;;;;;;;5023834;28;20048;-67
2023/05/04 07:12:57;;;;;;;7.53;4.28;;;;;;;;;;5023382;28;20049;-67
2023/05/04 07:15:23;;;;;;;9.18;4.25;;;;;;;;;;5025839;28;20045;-67
2023/05/04 07:17:49;;;;;;;5.47;3.63;;;;;;;;;;5025247;28;20483;-67
2023/05/04 07:20:15;;;;;;;6.07;3.50;;;;;;;;;;5024298;28;20060;-67
2023/05/04 07:22:41;;;;;;;6.32;3.70;;;;;;;;;;5025182;28;20140;-67
2023/05/04 07:25:08;;;;;;;5.68;4.30;;;;;;;;;;5024152;28;20407;-67
2023/05/04 07:27:34;;;;;;;6.47;4.15;;;;;;;;;;5024879;28;20053;-67
2023/05/04 07:30:01;;;;;;;7.63;4.45;;;;;;;;;;5024797;28;20056;-67
2023/05/04 07:32:27;;;;;;;5.07;3.72;;;;;;;;;;5024391;28;20566;-69
2023/05/04 07:34:53;;;;;;;3.78;3.05;;;;;;;;;;5027413;28;20045;-70
2023/05/04 07:37:19;;;;;;;3.85;2.75;;;;;;;;;;5025814;28;20131;-70
2023/05/04 07:39:45;;;;;;;3.17;2.53;;;;;;;;;;5025433;28;20046;-67
2023/05/04 07:42:11;;;;;;;5.38;3.10;;;;;;;;;;5026632;28;20045;-67
2023/05/04 07:44:37;;;;;;;6.72;3.70;;;;;;;;;;5025987;28;20057;-68
2023/05/04 07:47:03;;;;;;;5.68;3.67;;;;;;;;;;5023186;28;20196;-67
2023/05/04 07:49:30;;;;;;;4.40;3.30;;;;;;;;;;5025733;28;20547;-68
2023/05/04 07:51:56;;;;;;;4.55;3.05;;;;;;;;;;5024234;28;20743;-68
2023/05/04 07:54:22;;;;;;;2.83;2.55;;;;;;;;;;5025002;28;20033;-68
2023/05/04 07:56:48;;;;;;;3.33;2.00;;;;;;;;;;5023858;28;20147;-71
2023/05/04 07:59:16;;;;;;;4.10;2.67;;;;;;;;;;5026392;28;20473;-67
2023/05/04 08:01:42;;;;;;;7.95;3.33;;;;;;;;;;5024149;28;20038;-67
2023/05/04 08:04:08;;;;;;;6.40;4.03;;;;;;;;;;5023970;28;20050;-68
2023/05/04 08:06:38;;;;;;;4.07;3.25;;;;;;;;;;5025909;28;20053;-67
2023/05/04 08:09:04;;;;;;;2.95;2.42;;;;;;;;;;5023536;28;20053;-67
2023/05/04 08:11:33;;;;;;;3.78;2.40;;;;;;;;;;5025518;28;20120;-68
2023/05/04 08:13:59;;;;;;;4.65;3.35;;;;;;;;;;5025238;28;20495;-67
2023/05/04 08:16:25;;;;;;;3.90;3.28;;;;;;;;;;5024727;28;20087;-67
2023/05/04 08:18:51;;;;;;;4.07;2.67;;;;;;;;;;5022935;28;20045;-67
2023/05/04 08:21:17;;;;;;;2.70;2.50;;;;;;;;;;5023263;28;20041;-67
2023/05/04 08:23:43;;;;;;;3.50;2.25;;;;;;;;;;5024577;28;20061;-67
2023/05/04 08:26:09;;;;;;;6.72;3.80;;;;;;;;;;5025282;28;20107;-69
2023/05/04 08:28:39;;;;;;;5.75;3.40;;;;;;;;;;5023325;28;20456;-65
2023/05/04 08:31:06;;;;;;;6.05;3.15;;;;;;;;;;5024907;28;20049;-67
2023/05/04 08:33:32;;;;;;;4.43;3.53;;;;;;;;;;5025324;28;20042;-64
2023/05/04 08:35:59;;;;;;;4.07;2.90;;;;;;;;;;5023985;28;20553;-66
2023/05/04 08:38:25;;;;;;;3.55;3.15;;;;;;;;;;5024931;28;20092;-65
2023/05/04 08:40:52;;;;;;;4.53;2.92;;;;;;;;;;5023532;28;20045;-66
2023/05/04 08:43:18;;;;;;;8.30;3.45;;;;;;;;;;5023144;28;20053;-65
2023/05/04 08:45:48;;;;;;;4.72;3.53;;;;;;;;;;5028746;28;20054;-65
2023/05/04 08:48:14;;;;;;;7.32;3.10;;;;;;;;;;5026680;28;20084;-65
2023/05/04 08:50:41;;;;;;;2.53;2.33;;;;;;;;;;5025686;28;20049;-66
2023/05/04 08:53:09;;;;;;;3.88;1.92;;;;;;;;;;5031752;28;20048;-66
2023/05/04 08:55:39;;;;;;;3.88;3.47;;;;;;;;;;5032523;28;20217;-65
2023/05/04 08:58:07;;;;;;;5.65;3.42;;;;;;;;;;5023001;28;20150;-65
2023/05/04 09:00:34;;;;;;;2.78;2.40;;;;;;;;;;5026610;28;20402;-66
2023/05/04 09:03:02;;;;;;;3.53;3.20;;;;;;;;;;5025688;28;20048;-66
2023/05/04 09:05:28;;;;;;;6.45;3.53;;;;;;;;;;5025348;28;20049;-66
2023/05/04 09:07:54;;;;;;;3.70;3.40;;;;;;;;;;5025626;28;20049;-66
2023/05/04 09:10:20;;;;;;;4.90;2.75;;;;;;;;;;5025780;28;20041;-66
2023/05/04 09:12:46;;;;;;;5.25;3.70;;;;;;;;;;5042689;28;20044;-66
2023/05/04 09:15:22;;;;;;;3.17;2.55;;;;;;;;;;5044194;28;20507;-66
2023/05/04 09:18:15;;;;;;;6.22;3.00;;;;;;;;;;5024492;28;20079;-66
2023/05/04 09:20:48;;;;;;;2.75;1.95;;;;;;;;;;5042067;28;20052;-66
2023/05/04 09:23:15;;;;;;;4.53;4.07;;;;;;;;;;5044197;28;20049;-65
2023/05/04 09:25:50;;;;;;;4.22;3.03;;;;;;;;;;5043389;28;20458;-66
2023/05/04 09:28:17;;;;;;;2.95;2.67;;;;;;;;;;5043440;28;20091;-65
2023/05/04 09:30:43;;;;;;;3.88;2.22;;;;;;;;;;5026087;28;20045;-65
2023/05/04 09:33:09;;;;;;;5.18;3.33;;;;;;;;;;5046808;28;20048;-65
2023/05/04 09:35:43;;;;;;;3.53;3.00;;;;;;;;;;5047346;28;20150;-65
2023/05/04 09:38:09;;;;;;;4.15;3.47;;;;;;;;;;5023975;28;20084;-65
2023/05/04 09:40:35;;;;;;;6.40;3.65;;;;;;;;;;5046576;28;20041;-65
2023/05/04 09:43:01;;;;;;;3.10;2.70;;;;;;;;;;5047436;28;20056;-66
2023/05/04 09:45:41;;;;;;;6.22;3.55;;;;;;;;;;5026536;28;20110;-66
2023/05/04 09:48:20;;;;;;;3.63;3.08;;;;;;;;;;5024046;28;20439;-65
2023/05/04 09:50:53;;;;;;;2.85;2.00;;;;;;;;;;5044469;28;20049;-66
2023/05/04 09:53:26;;;;;;;4.97;2.65;;;;;;;;;;5044648;28;20045;-65
2023/05/04 09:55:58;;;;;;;5.45;3.10;;;;;;;;;;5031222;28;20119;-68
2023/05/04 09:58:24;;;;;;;;;;;;;;;;;;5031471;28;20151;-67
2023/05/04 10:00:52;;;;;;;3.30;2.47;;;;;;;;;;5027885;28;20315;-67
2023/05/04 10:03:18;;;;;;;4.10;3.10;;;;;;;;;;5047565;28;20132;-66
2023/05/04 10:05:45;;;;;;;4.95;3.55;;;;;;;;;;5041131;28;20048;-66
2023/05/04 10:08:12;;;;;;;7.60;4.68;;;;;;;;;;5024180;28;20044;-66
2023/05/04 10:10:38;;;;;;;6.38;4.00;;;;;;;;;;5046654;28;20113;-67
2023/05/04 10:13:04;;;;;;;5.20;3.33;;;;;;;;;;5040629;28;20056;-66
2023/05/04 10:15:31;;;;;;;4.03;2.83;;;;;;;;;;5028242;28;20056;-65
2023/05/04 10:18:03;;;;;;;5.75;3.40;;;;;;;;;;5039351;28;20106;-65
2023/05/04 10:20:47;;;;;;;8.70;3.20;;;;;;;;;;5047276;28;20048;-65
2023/05/04 10:23:22;;;;;;;4.22;3.10;;;;;;;;;;5024846;28;20084;-65
2023/05/04 10:25:58;;;;;;;6.53;3.17;;;;;;;;;;5028173;28;20055;-65
2023/05/04 10:28:30;;;;;;;4.07;3.13;;;;;;;;;;5027624;28;20773;-65
2023/05/04 10:30:59;;;;;;;;;;;;;;;;;;5046485;28;20040;-66
2023/05/04 10:33:26;;;;;;;6.10;3.53;;;;;;;;;;5046111;28;19925;-65
2023/05/04 10:35:52;;;;;;;5.00;2.20;;;;;;;;;;5044915;28;20049;-66
2023/05/04 10:38:18;;;;;;;3.28;2.90;;;;;;;;;;5046125;28;20045;-66
2023/05/04 10:40:49;;;;;;;3.05;2.20;;;;;;;;;;5027546;28;20052;-66
2023/05/04 10:43:25;;;;;;;4.38;2.78;;;;;;;;;;5045410;28;20051;-65
2023/05/04 10:45:51;;;;;;;3.17;2.00;;;;;;;;;;5043166;28;20055;-65
2023/05/04 10:48:17;;;;;;;3.65;2.13;;;;;;;;;;5046161;28;20049;-65
2023/05/04 10:50:48;;;;;;;3.47;3.17;;;;;;;;;;5026800;28;20052;-65
2023/05/04 10:53:15;;;;;;;3.00;2.55;;;;;;;;;;5024693;28;20043;-66
2023/05/04 10:55:45;;;;;;;3.47;2.38;;;;;;;;;;5046066;28;20045;-66
2023/05/04 10:58:15;;;;;;;2.30;2.03;;;;;;;;;;5041341;28;20037;-66
2023/05/04 11:00:42;;;;;;;3.33;2.85;;;;;;;;;;5049054;28;20137;-67
2023/05/04 11:03:08;;;;;;;3.67;2.33;;;;;;;;;;5044957;28;20053;-66
2023/05/04 11:05:41;;;;;;;5.47;3.50;;;;;;;;;;5045505;28;20041;-67
2023/05/04 11:08:14;;;;;;;5.28;3.10;;;;;;;;;;5045529;28;20105;-67
2023/05/04 11:10:40;;;;;;;5.13;2.95;;;;;;;;;;5045265;28;20132;-66
2023/05/04 11:13:14;;;;;;;3.50;2.50;;;;;;;;;;5027129;28;20045;-67
2023/05/04 11:15:44;;;;;;;4.03;2.47;;;;;;;;;;5037618;28;20056;-67
2023/05/04 11:18:10;;;;;;;3.33;2.45;;;;;;;;;;5032278;28;20056;-67
2023/05/04 11:20:36;;;;;;;4.88;2.65;;;;;;;;;;5046061;28;20463;-67
2023/05/04 11:23:03;;;;;;;3.05;2.58;;;;;;;;;;5046130;28;20044;-67
2023/05/04 11:25:30;;;;;;;6.85;2.97;;;;;;;;;;5027840;28;20083;-66
2023/05/04 11:27:57;;;;;;;5.78;2.80;;;;;;;;;;5027724;28;20470;-67
2023/05/04 11:30:31;;;;;;;3.58;3.10;;;;;;;;;;5028212;28;20056;-67
2023/05/04 11:32:59;;;;;;;3.58;2.97;;;;;;;;;;5045109;28;20045;-67
2023/05/04 11:35:25;;;;;;;4.10;2.90;;;;;;;;;;5046341;28;20079;-70
2023/05/04 11:37:51;;;;;;;5.00;2.63;;;;;;;;;;5045461;28;20614;-69
2023/05/04 11:40:18;;;;;;;5.40;2.88;;;;;;;;;;5045595;28;20045;-69
2023/05/04 11:42:45;;;;;;;3.90;2.83;;;;;;;;;;5028489;28;20080;-67
2023/05/04 11:45:13;;;;;;;3.40;3.03;;;;;;;;;;5045626;28;20120;-67
2023/05/04 11:47:40;;;;;;;2.45;2.25;;;;;;;;;;5027524;28;20053;-67
2023/05/04 11:50:06;;;;;;;4.05;2.00;;;;;;;;;;5027505;28;20444;-67
2023/05/04 11:52:35;;;;;;;4.10;2.78;;;;;;;;;;5027101;28;20136;-67
2023/05/04 11:55:01;;;;;;;4.35;3.28;;;;;;;;;;5044523;28;20052;-67
2023/05/04 11:57:30;;;;;;;2.90;2.58;;;;;;;;;;5027582;28;20132;-67
2023/05/04 11:59:56;;;;;;;4.80;2.10;;;;;;;;;;5044565;28;20052;-68
2023/05/04 12:02:24;;;;;;;3.33;2.75;;;;;;;;;;5049005;28;20047;-67
2023/05/04 12:04:50;;;;;;;2.03;1.83;;;;;;;;;;5030589;28;20048;-68
2023/05/04 12:07:16;;;;;;;5.85;3.05;;;;;;;;;;5044273;28;20049;-67
2023/05/04 12:09:45;;;;;;;2.50;2.30;;;;;;;;;;5044531;28;20161;-67
2023/05/04 12:12:11;;;;;;;4.32;3.17;;;;;;;;;;5043514;28;20542;-67
2023/05/04 12:14:47;;;;;;;2.42;2.15;;;;;;;;;;5025459;28;20036;-68
2023/05/04 12:17:14;;;;;;;2.50;2.20;;;;;;;;;;5025802;28;20530;-67
2023/05/04 12:19:47;;;;;;;3.25;2.10;;;;;;;;;;5044010;28;20055;-67
2023/05/04 12:22:13;;;;;;;2.50;2.08;;;;;;;;;;5042603;28;20045;-68
2023/05/04 12:24:39;;;;;;;4.30;3.35;;;;;;;;;;5043929;28;20060;-68
2023/05/04 12:27:11;;;;;;;5.20;3.00;;;;;;;;;;5043673;28;20564;-67
2023/05/04 12:29:37;;;;;;;;;;;;;;;;;;5043832;28;20049;-67
2023/05/04 12:32:03;;;;;;;5.18;3.22;;;;;;;;;;5043817;28;20616;-67
2023/05/04 12:34:30;;;;;;;5.40;2.30;;;;;;;;;;5025207;28;20620;-68
2023/05/04 12:36:56;;;;;;;3.65;2.47;;;;;;;;;;5043144;28;20053;-68
2023/05/04 12:39:22;;;;;;;2.97;2.08;;;;;;;;;;5044670;28;20133;-65
2023/05/04 12:41:48;;;;;;;3.40;2.55;;;;;;;;;;5043111;28;20435;-65
2023/05/04 12:44:15;;;;;;;4.38;2.53;;;;;;;;;;5044050;28;20045;-68
2023/05/04 12:46:44;;;;;;;2.50;2.20;;;;;;;;;;5025880;28;20052;-67
2023/05/04 12:49:12;;;;;;;4.10;2.72;;;;;;;;;;5043458;28;20128;-68
2023/05/04 12:51:38;;;;;;;4.00;2.35;;;;;;;;;;5044015;28;20470;-67
2023/05/04 12:54:04;;;;;;;2.60;1.92;;;;;;;;;;5025898;28;20084;-68
2023/05/04 12:56:31;;;;;;;4.78;2.50;;;;;;;;;;5042720;28;20124;-67
2023/05/04 12:58:57;;;;;;;4.03;2.97;;;;;;;;;;5043126;28;20099;-67
2023/05/04 13:01:23;;;;;;;3.25;2.92;;;;;;;;;;5042971;28;20045;-67
2023/05/04 13:03:49;;;;;;;2.78;1.90;;;;;;;;;;5042248;28;20156;-66
2023/05/04 13:06:15;;;;;;;2.88;2.33;;;;;;;;;;5025499;28;20041;-67
2023/05/04 13:08:41;;;;;;;6.43;3.55;;;;;;;;;;5043400;28;20413;-66
2023/05/04 13:11:07;;;;;;;3.58;2.33;;;;;;;;;;5041980;28;20049;-66
2023/05/04 13:13:34;;;;;;;3.67;3.33;;;;;;;;;;5043513;28;20084;-67
2023/05/04 13:16:00;;;;;;;4.00;2.63;;;;;;;;;;5026649;28;20136;-67
2023/05/04 13:18:26;;;;;;;2.38;2.17;;;;;;;;;;5043656;28;20052;-67
2023/05/04 13:20:53;;;;;;;4.68;2.60;;;;;;;;;;5026397;28;20049;-67
2023/05/04 13:23:20;;;;;;;6.22;2.83;;;;;;;;;;5044400;28;20037;-67
2023/05/04 13:25:46;;;;;;;3.72;2.38;;;;;;;;;;5025291;28;20056;-67
2023/05/04 13:28:12;;;;;;;4.28;3.15;;;;;;;;;;5045143;28;20057;-66
2023/05/04 13:30:38;;;;;;;3.55;2.58;;;;;;;;;;5043793;28;20052;-68
2023/05/04 13:33:05;;;;;;;4.95;2.45;;;;;;;;;;5026185;28;20687;-67
2023/05/04 13:35:30;;;;;;;4.50;3.10;;;;;;;;;;5026453;28;20044;-67
2023/05/04 13:37:56;;;;;;;2.75;2.20;;;;;;;;;;5043454;28;20053;-67
2023/05/04 13:40:23;;;;;;;2.20;1.95;;;;;;;;;;5026608;28;20041;-67
2023/05/04 13:42:49;;;;;;;3.95;2.58;;;;;;;;;;5025925;28;20048;-66
2023/05/04 13:45:15;;;;;;;2.10;1.70;;;;;;;;;;5043989;28;20049;-66
2023/05/04 13:47:41;;;;;;;3.65;1.92;;;;;;;;;;5044106;28;20704;-66
2023/05/04 13:50:07;;;;;;;2.25;1.42;;;;;;;;;;5043849;28;20060;-66
2023/05/04 13:52:33;;;;;;;3.38;1.40;;;;;;;;;;5025530;28;20052;-66
2023/05/04 13:54:59;;;;;;;5.53;1.77;;;;;;;;;;5026031;28;20468;-66
2023/05/04 13:57:26;;;;;;;2.70;1.80;;;;;;;;;;5044354;28;20085;-67
2023/05/04 13:59:53;;;;;;;2.30;1.92;;;;;;;;;;5043277;28;20052;-66
2023/05/04 14:02:19;;;;;;;3.92;1.92;;;;;;;;;;5044303;28;20055;-68
2023/05/04 14:04:45;;;;;;;7.15;1.65;;;;;;;;;;5042822;28;20075;-69
2023/05/04 14:07:11;;;;;;;3.05;2.25;;;;;;;;;;5034791;28;20037;-69
2023/05/04 14:09:37;;;;;;;2.33;2.13;;;;;;;;;;5023302;28;20045;-70
2023/05/04 14:12:03;;;;;;;2.65;1.83;;;;;;;;;;5014539;28;20096;-68
2023/05/04 14:14:29;;;;;;;4.70;2.35;;;;;;;;;;5023407;28;20385;-68
2023/05/04 14:16:55;;;;;;;4.57;2.05;;;;;;;;;;5036040;28;20048;-69
2023/05/04 14:19:21;;;;;;;2.58;2.25;;;;;;;;;;5027986;28;20045;-69
2023/05/04 14:21:47;;;;;;;6.32;3.45;;;;;;;;;;5028188;28;20132;-69
2023/05/04 14:24:13;;;;;;;4.63;2.60;;;;;;;;;;5030305;28;20144;-69
2023/05/04 14:26:39;;;;;;;1.88;1.63;;;;;;;;;;5029604;28;20399;-68
2023/05/04 14:29:05;;;;;;;3.75;2.33;;;;;;;;;;5028415;28;20132;-69
2023/05/04 14:31:31;;;;;;;4.25;3.08;;;;;;;;;;5029379;28;20045;-68
2023/05/04 14:33:58;;;;;;;3.08;1.88;;;;;;;;;;5046213;28;20044;-69
2023/05/04 14:36:24;;;;;;;2.33;2.05;;;;;;;;;;5029197;28;20071;-68
2023/05/04 14:38:50;;;;;;;2.97;2.17;;;;;;;;;;5027982;28;20053;-69
2023/05/04 14:41:16;;;;;;;3.45;2.50;;;;;;;;;;5029463;28;20071;-68